Terminal Aerodrome Forecast
Issued by NWS Brownsville, TX

Home | Current Version | Previous Version | Text Only | Print | Product List | Glossary On
Versions: 1 2 3 4 5 6 7 8 9 10 11 12 13 14 15 16 17 18 19 20 21
000
FTUS44 KBRO 021700
TAFBRO
TAF
KBRO 021722Z 0218/0318 11014KT P6SM VCSH FEW030
     FM030000 13016KT P6SM OVC050
      TEMPO 0300/0303 P6SM -SHRA OVC050
     FM030300 11010KT P6SM OVC050
      TEMPO 0303/0306 P6SM -SHRA OVC050
     FM030600 14009KT P6SM OVC100 PROB30 0306/0309 P6SM -SHRA OVC100
     FM030900 13010KT P6SM OVC050 PROB30 0309/0312 P6SM -SHRA OVC050
     FM031200 12009KT P6SM OVC050 PROB30 0312/0315 P6SM TS BKN050CB
     FM031500 13018KT P6SM OVC050 PROB30 0315/0318 P6SM TS BKN050CB=

USA.gov is the U.S. government's official web portal to all federal, state and local government web resources and services.